Time;durP1;ratioP1;P1;durP2;ratioP2;P2;SDS_P1;SDS_P2;PMS_P1;PMS_P2;Temp;Humidity;BMP_temperature;BMP_pressure;BME280_temperature;BME280_humidity;BME280_pressure;Samples;Min_cycle;Max_cycle;Signal;HPM_P1;HPM_P2
2021/04/06 00:02:28;;;;;;;4.90;4.40;;;0.80;99.90;;;;;;5076813;28;20191;-76
2021/04/06 00:05:01;;;;;;;5.10;4.40;;;0.70;99.90;;;;;;5079656;28;20505;-76
2021/04/06 00:07:29;;;;;;;6.23;4.97;;;0.70;99.90;;;;;;5076622;28;20460;-76
2021/04/06 00:10:01;;;;;;;3.90;3.20;;;0.60;99.90;;;;;;5076126;28;20556;-76
2021/04/06 00:12:30;;;;;;;4.30;3.80;;;0.60;99.90;;;;;;5076864;28;20487;-76
2021/04/06 00:14:59;;;;;;;5.43;4.00;;;0.50;99.90;;;;;;5075113;28;20433;-75
2021/04/06 00:17:28;;;;;;;4.70;4.20;;;0.50;99.90;;;;;;5074976;28;20481;-75
2021/04/06 00:19:58;;;;;;;5.23;4.30;;;0.50;99.90;;;;;;5075974;28;20507;-75
2021/04/06 00:22:27;;;;;;;5.60;4.30;;;0.40;99.90;;;;;;5094580;28;20510;-75
2021/04/06 00:24:56;;;;;;;4.40;3.10;;;0.40;99.90;;;;;;5095821;28;20444;-75
2021/04/06 00:27:29;;;;;;;4.77;3.10;;;0.40;99.90;;;;;;5094840;28;20460;-75
2021/04/06 00:30:02;;;;;;;4.40;3.63;;;0.40;99.90;;;;;;5094643;28;20834;-75
2021/04/06 00:32:30;;;;;;;4.30;3.60;;;0.40;99.90;;;;;;5096267;28;20416;-75
2021/04/06 00:35:01;;;;;;;4.40;3.10;;;0.30;99.90;;;;;;5096354;28;20428;-75
2021/04/06 00:37:29;;;;;;;3.47;2.63;;;0.40;99.90;;;;;;5075816;28;20499;-75
2021/04/06 00:40:01;;;;;;;5.13;3.07;;;0.30;99.90;;;;;;5075455;28;20467;-75
2021/04/06 00:42:30;;;;;;;4.50;3.83;;;0.30;99.90;;;;;;5075757;28;20882;-75
2021/04/06 00:45:04;;;;;;;3.23;2.93;;;0.30;99.90;;;;;;5075531;28;20429;-75
2021/04/06 00:47:31;;;;;;;4.00;3.60;;;0.30;99.90;;;;;;5074354;28;20469;-75
2021/04/06 00:50:04;;;;;;;5.93;3.93;;;0.30;99.90;;;;;;5073915;28;20466;-75
2021/04/06 00:52:32;;;;;;;4.40;3.33;;;0.30;99.90;;;;;;5074101;28;20499;-75
2021/04/06 00:55:01;;;;;;;4.63;2.83;;;0.30;99.90;;;;;;5075724;28;20449;-75
2021/04/06 00:57:31;;;;;;;4.80;3.30;;;0.30;99.90;;;;;;5093255;28;20459;-75
2021/04/06 01:00:14;;;;;;;4.20;3.27;;;0.30;99.90;;;;;;5095416;28;20995;-75
2021/04/06 01:02:57;;;;;;;5.83;3.10;;;0.40;99.90;;;;;;5094976;28;20432;-76
2021/04/06 01:05:25;;;;;;;5.43;3.40;;;0.40;99.90;;;;;;5090928;28;20453;-76
2021/04/06 01:07:53;;;;;;;4.73;3.30;;;0.40;99.90;;;;;;5073902;28;20437;-76
2021/04/06 01:10:21;;;;;;;5.83;4.03;;;0.40;99.90;;;;;;5073529;28;21055;-76
2021/04/06 01:12:49;;;;;;;4.40;2.73;;;0.40;99.90;;;;;;5073671;28;20447;-75
2021/04/06 01:15:18;;;;;;;4.93;3.00;;;0.40;99.90;;;;;;5075071;28;20469;-75
2021/04/06 01:17:46;;;;;;;5.47;3.47;;;0.40;99.90;;;;;;5079062;28;21010;-75
2021/04/06 01:20:17;;;;;;;11.27;4.20;;;0.40;99.90;;;;;;5093422;28;20501;-75
2021/04/06 01:22:46;;;;;;;3.87;2.80;;;0.40;99.90;;;;;;5053451;28;20861;-75
2021/04/06 01:25:19;;;;;;;3.30;3.00;;;0.40;99.90;;;;;;5055091;28;20423;-75
2021/04/06 01:27:49;;;;;;;6.33;2.97;;;0.40;99.90;;;;;;5066984;28;20832;-75
2021/04/06 01:30:22;;;;;;;4.77;3.27;;;0.40;99.90;;;;;;5094871;28;20876;-75
2021/04/06 01:32:50;;;;;;;5.00;3.10;;;0.40;99.90;;;;;;5095106;28;20449;-75
2021/04/06 01:35:18;;;;;;;3.33;2.87;;;0.40;99.90;;;;;;5093942;28;20428;-75
2021/04/06 01:37:46;;;;;;;5.27;3.27;;;0.40;99.90;;;;;;5073252;28;20447;-75
2021/04/06 01:40:15;;;;;;;4.27;3.17;;;0.40;99.90;;;;;;5074290;28;20522;-75
2021/04/06 01:42:43;;;;;;;4.60;3.50;;;0.40;99.90;;;;;;5093926;28;20778;-75
2021/04/06 01:45:16;;;;;;;4.03;3.63;;;0.40;99.90;;;;;;5054279;28;20440;-75
2021/04/06 01:47:44;;;;;;;5.10;3.40;;;0.40;99.90;;;;;;5054779;28;20911;-75
2021/04/06 01:50:14;;;;;;;5.20;4.00;;;0.40;99.90;;;;;;5053474;28;20450;-75
2021/04/06 01:52:46;;;;;;;7.50;3.40;;;0.40;99.90;;;;;;5054527;28;20487;-75
2021/04/06 01:55:17;;;;;;;4.43;3.50;;;0.30;99.90;;;;;;5054493;28;20777;-75
2021/04/06 01:57:50;;;;;;;5.90;3.87;;;0.30;99.90;;;;;;5054445;28;20501;-75
2021/04/06 02:00:23;;;;;;;3.97;3.57;;;0.30;99.90;;;;;;5052675;28;20520;-75
2021/04/06 02:02:51;;;;;;;4.47;3.43;;;0.30;99.90;;;;;;5066236;28;20441;-75
2021/04/06 02:05:18;;;;;;;4.60;4.03;;;0.30;99.90;;;;;;5075500;28;20465;-75
2021/04/06 02:07:47;;;;;;;6.40;4.30;;;0.30;99.90;;;;;;5092839;28;20817;-75
2021/04/06 02:10:15;;;;;;;5.60;3.87;;;0.30;99.90;;;;;;5092932;28;20594;-75
2021/04/06 02:12:43;;;;;;;8.73;5.10;;;0.30;99.90;;;;;;5094145;28;20432;-75
2021/04/06 02:15:13;;;;;;;8.73;4.37;;;0.30;99.90;;;;;;5093982;28;20464;-75
2021/04/06 02:17:51;;;;;;;4.80;4.30;;;0.30;99.90;;;;;;5094124;28;20486;-75
2021/04/06 02:20:23;;;;;;;8.10;4.60;;;0.30;99.90;;;;;;5091590;28;20509;-75
2021/04/06 02:23:00;;;;;;;7.50;4.90;;;0.30;99.90;;;;;;5074145;28;20420;-75
2021/04/06 02:25:29;;;;;;;7.80;6.27;;;0.40;99.90;;;;;;5072402;28;20447;-75
2021/04/06 02:27:57;;;;;;;5.47;4.97;;;0.40;99.90;;;;;;5052294;28;20461;-75
2021/04/06 02:30:30;;;;;;;8.47;5.00;;;0.40;99.90;;;;;;5080939;28;20460;-75
2021/04/06 02:32:59;;;;;;;8.60;5.30;;;0.50;99.90;;;;;;5093916;28;20421;-75
2021/04/06 02:35:26;;;;;;;4.63;3.53;;;0.50;99.90;;;;;;5092483;28;20497;-76
2021/04/06 02:37:54;;;;;;;8.27;3.70;;;0.50;99.90;;;;;;5081892;28;20441;-76
2021/04/06 02:40:24;;;;;;;4.27;3.70;;;0.60;99.90;;;;;;5072102;28;20982;-76
2021/04/06 02:42:55;;;;;;;6.13;3.53;;;0.60;99.90;;;;;;5073864;28;20794;-75
2021/04/06 02:45:28;;;;;;;7.50;4.00;;;0.60;99.90;;;;;;5072288;28;20465;-75
2021/04/06 02:48:04;;;;;;;7.10;3.50;;;0.60;99.90;;;;;;5072301;28;20813;-75
2021/04/06 02:50:33;;;;;;;5.00;3.30;;;0.70;99.90;;;;;;5073992;28;20917;-75
2021/04/06 02:53:05;;;;;;;4.73;3.23;;;0.70;99.90;;;;;;5072120;28;20500;-75
2021/04/06 02:55:34;;;;;;;4.40;3.30;;;0.70;99.90;;;;;;5072180;28;20536;-75
2021/04/06 02:58:11;;;;;;;5.67;3.57;;;0.80;99.90;;;;;;5077211;28;20531;-75
2021/04/06 03:00:40;;;;;;;6.37;3.30;;;0.80;99.90;;;;;;5076067;28;20452;-75
2021/04/06 03:03:20;;;;;;;5.10;3.33;;;0.80;99.90;;;;;;5096528;28;20432;-75
2021/04/06 03:05:47;;;;;;;5.47;2.60;;;0.90;99.90;;;;;;5091983;28;20452;-75
2021/04/06 03:08:15;;;;;;;4.93;2.73;;;0.80;99.90;;;;;;5098536;28;20458;-75
2021/04/06 03:10:42;;;;;;;7.23;3.40;;;0.80;99.90;;;;;;5099085;28;20493;-75
2021/04/06 03:13:11;;;;;;;7.20;2.50;;;0.80;99.90;;;;;;5096890;28;20455;-75
2021/04/06 03:15:41;;;;;;;8.07;2.77;;;0.80;99.90;;;;;;5096193;28;20855;-75
2021/04/06 03:18:09;;;;;;;4.73;2.83;;;0.80;99.90;;;;;;5087089;28;20872;-75
2021/04/06 03:20:39;;;;;;;10.93;3.57;;;0.80;99.90;;;;;;5075726;28;20498;-76
2021/04/06 03:23:07;;;;;;;8.00;3.07;;;0.80;99.90;;;;;;5076906;28;20441;-76
2021/04/06 03:25:36;;;;;;;6.73;2.73;;;0.90;99.90;;;;;;5087058;28;20949;-76
2021/04/06 03:28:06;;;;;;;6.43;2.80;;;0.90;99.90;;;;;;5078570;28;20865;-76
2021/04/06 03:30:35;;;;;;;3.10;2.20;;;0.90;99.90;;;;;;5097142;28;20416;-76
2021/04/06 03:33:05;;;;;;;5.47;2.80;;;0.90;99.90;;;;;;5097430;28;20477;-76
2021/04/06 03:35:35;;;;;;;6.73;2.73;;;0.90;99.90;;;;;;5055455;28;20523;-76
2021/04/06 03:38:03;;;;;;;7.87;3.07;;;0.90;99.90;;;;;;5055523;28;20951;-76
2021/04/06 03:40:31;;;;;;;4.53;2.60;;;0.90;99.90;;;;;;5056539;28;20782;-76
2021/04/06 03:43:11;;;;;;;5.00;3.10;;;0.90;99.90;;;;;;5056607;28;20429;-75
2021/04/06 03:45:53;;;;;;;6.07;2.37;;;0.90;99.90;;;;;;5056855;28;20465;-75
2021/04/06 03:48:23;;;;;;;3.70;2.43;;;0.90;99.90;;;;;;5055135;28;20438;-75
2021/04/06 03:50:50;;;;;;;7.27;3.07;;;0.90;99.90;;;;;;5065027;28;20495;-75
2021/04/06 03:53:20;;;;;;;3.87;2.47;;;0.90;99.90;;;;;;5076619;28;20433;-75
2021/04/06 03:56:03;;;;;;;6.20;2.20;;;0.90;99.90;;;;;;5088987;28;20439;-75
2021/04/06 03:58:33;;;;;;;4.10;2.03;;;0.90;99.90;;;;;;5096543;28;20459;-75
2021/04/06 04:01:01;;;;;;;6.20;2.23;;;0.90;99.90;;;;;;5095342;28;20522;-75
2021/04/06 04:03:29;;;;;;;9.50;2.70;;;0.90;99.90;;;;;;5098326;28;20420;-75
2021/04/06 04:05:56;;;;;;;7.20;2.30;;;0.90;99.90;;;;;;5095269;28;20448;-75
2021/04/06 04:08:24;;;;;;;5.07;2.40;;;0.90;99.90;;;;;;5097140;28;20436;-75
2021/04/06 04:10:51;;;;;;;6.07;2.23;;;0.90;99.90;;;;;;5092608;28;20441;-75
2021/04/06 04:13:18;;;;;;;9.60;2.80;;;0.90;99.90;;;;;;5074689;28;20437;-75
2021/04/06 04:15:45;;;;;;;5.20;2.20;;;0.90;99.90;;;;;;5078343;28;20451;-75
2021/04/06 04:18:13;;;;;;;6.00;1.87;;;0.90;99.90;;;;;;5097068;28;20468;-75
2021/04/06 04:20:42;;;;;;;8.05;2.72;;;0.90;99.90;;;;;;5093856;28;20986;-75
2021/04/06 04:23:15;;;;;;;7.63;2.23;;;1.00;99.90;;;;;;5095499;28;20223;-75
2021/04/06 04:25:42;;;;;;;8.13;2.23;;;1.00;99.90;;;;;;5096567;28;20852;-75
2021/04/06 04:28:10;;;;;;;6.17;2.30;;;1.00;99.90;;;;;;5094579;28;20490;-75
2021/04/06 04:30:42;;;;;;;9.65;2.97;;;1.00;99.90;;;;;;5091274;28;20476;-75
2021/04/06 04:33:13;;;;;;;8.67;2.60;;;1.10;99.90;;;;;;5074507;28;20221;-75
2021/04/06 04:35:41;;;;;;;6.40;2.70;;;1.10;99.90;;;;;;5088161;28;20524;-75
2021/04/06 04:38:10;;;;;;;8.30;2.57;;;1.10;99.90;;;;;;5077604;28;20484;-75
2021/04/06 04:40:44;;;;;;;9.43;3.07;;;1.00;99.90;;;;;;5078489;28;20915;-75
2021/04/06 04:43:12;;;;;;;7.97;3.03;;;1.00;99.90;;;;;;5095714;28;20506;-75
2021/04/06 04:45:40;;;;;;;7.60;2.73;;;1.00;99.90;;;;;;5096038;28;20518;-75
2021/04/06 04:48:08;;;;;;;7.80;2.60;;;1.00;99.90;;;;;;5094367;28;20453;-75
2021/04/06 04:50:35;;;;;;;7.60;2.23;;;1.10;99.90;;;;;;5094895;28;20929;-75
2021/04/06 04:53:04;;;;;;;9.33;3.20;;;1.10;99.90;;;;;;5095863;28;20519;-75
2021/04/06 04:55:33;;;;;;;5.43;2.50;;;1.10;99.90;;;;;;5083766;28;20519;-75
2021/04/06 04:58:00;;;;;;;9.37;2.80;;;1.10;99.90;;;;;;5094422;28;20472;-75
2021/04/06 05:00:28;;;;;;;4.13;2.27;;;1.10;99.90;;;;;;5073011;28;20506;-75
2021/04/06 05:02:55;;;;;;;7.70;2.83;;;1.00;99.90;;;;;;5080764;28;20440;-75
2021/04/06 05:05:22;;;;;;;4.73;2.67;;;1.00;99.90;;;;;;5091539;28;20498;-75
2021/04/06 05:07:50;;;;;;;4.33;2.30;;;1.00;99.90;;;;;;5075420;28;20491;-75
2021/04/06 05:10:19;;;;;;;5.33;2.23;;;1.00;99.90;;;;;;5074990;28;20453;-75
2021/04/06 05:12:50;;;;;;;6.63;1.80;;;1.00;99.90;;;;;;5073664;28;21045;-75
2021/04/06 05:15:19;;;;;;;6.17;2.20;;;1.00;99.90;;;;;;5074867;28;20505;-75
2021/04/06 05:17:48;;;;;;;5.37;1.70;;;1.00;99.90;;;;;;5073566;28;20437;-75
2021/04/06 05:20:17;;;;;;;6.00;2.40;;;0.90;99.90;;;;;;5073897;28;20465;-76
2021/04/06 05:22:44;;;;;;;6.23;2.57;;;0.90;99.90;;;;;;5091553;28;20440;-76
2021/04/06 05:25:12;;;;;;;7.93;2.27;;;0.90;99.90;;;;;;5075152;28;20441;-75
2021/04/06 05:27:40;;;;;;;7.07;2.63;;;0.90;99.90;;;;;;5073724;28;20543;-75
2021/04/06 05:30:12;;;;;;;5.30;2.47;;;0.90;99.90;;;;;;5073938;28;20962;-75
2021/04/06 05:32:40;;;;;;;7.43;2.73;;;0.90;99.90;;;;;;5075126;28;20932;-75
2021/04/06 05:35:09;;;;;;;11.13;2.63;;;0.90;99.90;;;;;;5091778;28;21012;-75
2021/04/06 05:37:36;;;;;;;10.10;3.30;;;1.00;99.90;;;;;;5094720;28;20479;-75
2021/04/06 05:40:05;;;;;;;9.10;2.60;;;1.00;99.90;;;;;;5093486;28;20468;-75
2021/04/06 05:42:32;;;;;;;4.90;2.70;;;1.00;99.90;;;;;;5092311;28;20463;-75
2021/04/06 05:45:01;;;;;;;6.03;3.00;;;1.00;99.90;;;;;;5086128;28;20445;-75
2021/04/06 05:47:37;;;;;;;7.60;3.23;;;1.10;99.90;;;;;;5072914;28;20473;-75
2021/04/06 05:50:06;;;;;;;6.80;3.13;;;1.10;99.90;;;;;;5074696;28;20894;-75
2021/04/06 05:52:34;;;;;;;6.10;3.20;;;1.10;99.90;;;;;;5073779;28;20494;-75
2021/04/06 05:55:04;;;;;;;6.53;3.50;;;1.20;99.90;;;;;;5072488;28;20912;-75
2021/04/06 05:57:31;;;;;;;5.37;3.30;;;1.20;99.90;;;;;;5074613;28;20417;-75
2021/04/06 05:59:58;;;;;;;8.30;5.37;;;1.20;99.90;;;;;;5072580;28;20468;-75
2021/04/06 06:02:27;;;;;;;9.40;3.30;;;1.20;99.90;;;;;;5074144;28;20429;-75
2021/04/06 06:04:56;;;;;;;9.60;3.20;;;1.30;99.90;;;;;;5074065;28;20929;-76
2021/04/06 06:07:23;;;;;;;9.20;3.50;;;1.30;99.90;;;;;;5090916;28;20444;-75
2021/04/06 06:09:51;;;;;;;7.93;3.67;;;1.30;99.90;;;;;;5093169;28;20461;-75
2021/04/06 06:12:20;;;;;;;12.33;3.57;;;1.30;99.90;;;;;;5078898;28;20495;-75
2021/04/06 06:14:50;;;;;;;8.20;3.70;;;1.40;99.90;;;;;;5072775;28;20556;-75
2021/04/06 06:17:19;;;;;;;9.10;3.17;;;1.40;99.90;;;;;;5080711;28;20480;-76
2021/04/06 06:19:48;;;;;;;11.30;3.60;;;1.40;99.90;;;;;;5093624;28;20473;-76
2021/04/06 06:22:17;;;;;;;6.70;4.20;;;1.50;99.90;;;;;;5094038;28;20440;-75
2021/04/06 06:24:47;;;;;;;8.00;3.30;;;1.50;99.90;;;;;;5075123;28;20488;-75
2021/04/06 06:27:27;;;;;;;8.33;4.33;;;1.50;99.90;;;;;;5073334;28;20488;-75
2021/04/06 06:29:54;;;;;;;9.43;3.10;;;1.50;99.90;;;;;;5072659;28;20500;-75
2021/04/06 06:32:23;;;;;;;9.23;3.90;;;1.70;99.90;;;;;;5072407;28;20449;-75
2021/04/06 06:34:51;;;;;;;11.50;3.40;;;1.90;99.90;;;;;;5073337;28;20497;-75
2021/04/06 06:37:26;;;;;;;10.50;3.90;;;2.20;99.90;;;;;;5074518;28;20464;-75
2021/04/06 06:40:00;;;;;;;8.27;3.23;;;2.40;99.90;;;;;;5073879;28;20476;-75
2021/04/06 06:42:31;;;;;;;6.70;3.90;;;2.60;99.90;;;;;;5093311;28;20436;-75
2021/04/06 06:44:59;;;;;;;6.90;3.50;;;2.80;99.90;;;;;;5093888;28;20412;-75
2021/04/06 06:47:28;;;;;;;9.30;3.93;;;3.00;99.90;;;;;;5084880;28;20853;-75
2021/04/06 06:50:08;;;;;;;7.53;3.50;;;3.20;99.90;;;;;;5073445;28;20463;-75
2021/04/06 06:52:37;;;;;;;10.63;4.00;;;3.40;99.90;;;;;;5053412;28;20425;-75
2021/04/06 06:55:19;;;;;;;7.07;3.50;;;3.50;99.90;;;;;;5053516;28;20469;-75
2021/04/06 06:57:49;;;;;;;9.03;3.50;;;3.40;99.90;;;;;;5059803;28;20611;-76
2021/04/06 07:00:19;;;;;;;8.63;4.37;;;3.20;99.90;;;;;;5073272;28;20590;-76
2021/04/06 07:02:47;;;;;;;7.63;4.27;;;3.10;99.90;;;;;;5073311;28;20810;-76
2021/04/06 07:05:21;;;;;;;11.23;3.37;;;3.00;99.90;;;;;;5084601;28;20521;-75
2021/04/06 07:07:55;;;;;;;6.20;3.33;;;2.80;99.90;;;;;;5073042;28;20478;-75
2021/04/06 07:10:23;;;;;;;7.70;3.43;;;2.70;99.90;;;;;;5073299;28;20868;-75
2021/04/06 07:12:59;;;;;;;7.53;3.13;;;2.60;99.90;;;;;;5073249;28;20413;-75
2021/04/06 07:15:27;;;;;;;8.50;3.20;;;2.50;99.90;;;;;;5081847;28;20522;-75
2021/04/06 07:18:02;;;;;;;6.37;3.03;;;2.40;99.90;;;;;;5081773;28;20441;-75
2021/04/06 07:20:32;;;;;;;7.17;3.07;;;2.40;99.90;;;;;;5093516;28;20439;-75
2021/04/06 07:23:03;;;;;;;8.30;3.47;;;2.30;99.90;;;;;;5093405;28;20467;-75
2021/04/06 07:25:31;;;;;;;7.40;3.03;;;2.40;99.90;;;;;;5092381;28;20485;-75
2021/04/06 07:28:00;;;;;;;7.60;3.60;;;2.60;99.90;;;;;;5091921;28;20817;-75
2021/04/06 07:30:28;;;;;;;8.23;4.90;;;2.80;99.90;;;;;;5086331;28;21047;-75
2021/04/06 07:32:56;;;;;;;9.23;3.20;;;2.90;99.90;;;;;;5093278;28;20508;-76
2021/04/06 07:35:24;;;;;;;10.30;2.83;;;3.10;99.90;;;;;;5093557;28;20502;-76
2021/04/06 07:37:53;;;;;;;7.40;3.20;;;3.30;99.90;;;;;;5093362;28;20505;-76
2021/04/06 07:40:22;;;;;;;6.93;2.90;;;3.40;99.90;;;;;;5092974;28;20460;-76
2021/04/06 07:42:49;;;;;;;8.60;3.40;;;3.60;99.90;;;;;;5092897;28;20417;-75
2021/04/06 07:45:39;;;;;;;8.87;3.33;;;3.80;99.90;;;;;;5093074;28;20424;-75
2021/04/06 07:48:09;;;;;;;8.80;3.30;;;3.80;99.90;;;;;;5082265;28;20907;-75
2021/04/06 07:50:41;;;;;;;8.13;3.80;;;3.70;99.90;;;;;;5088427;28;20441;-75
2021/04/06 07:53:26;;;;;;;12.73;3.57;;;3.70;99.90;;;;;;5076446;28;20921;-75
2021/04/06 07:55:55;;;;;;;7.67;3.43;;;3.70;99.90;;;;;;5075065;28;20479;-75
2021/04/06 07:58:47;;;;;;;12.03;3.70;;;3.70;99.90;;;;;;5076809;28;20445;-75
2021/04/06 08:01:17;;;;;;;9.13;3.47;;;3.80;99.90;;;;;;5076352;28;20451;-75
2021/04/06 08:04:01;;;;;;;11.07;4.10;;;3.80;99.90;;;;;;5087548;28;20929;-75
2021/04/06 08:06:29;;;;;;;4.60;3.40;;;3.80;99.90;;;;;;5082392;28;20518;-75
2021/04/06 08:08:57;;;;;;;8.90;3.00;;;3.80;99.90;;;;;;5074678;28;20467;-76
2021/04/06 08:12:05;;;;;;;8.83;2.97;;;4.00;99.90;;;;;;5076038;28;20511;-76
2021/04/06 08:14:35;;;;;;;5.47;2.87;;;4.20;99.90;;;;;;5076269;28;20496;-76
2021/04/06 08:17:39;;;;;;;6.23;2.73;;;4.30;99.90;;;;;;5075995;28;20425;-76
2021/04/06 08:20:16;;;;;;;6.87;2.77;;;4.30;99.90;;;;;;5082795;28;20468;-76
2021/04/06 08:22:50;;;;;;;5.80;2.65;;;4.30;99.90;;;;;;5074073;28;20439;-76
2021/04/06 08:25:44;;;;;;;6.17;3.00;;;4.50;99.90;;;;;;5076186;28;20182;-76
2021/04/06 08:28:40;;;;;;;6.00;2.83;;;4.50;99.90;;;;;;5075720;28;20445;-76
2021/04/06 08:31:35;;;;;;;7.33;2.70;;;4.30;99.90;;;;;;5079231;28;20452;-76
2021/04/06 08:34:35;;;;;;;5.95;2.83;;;4.20;99.90;;;;;;5095201;28;20482;-76
2021/04/06 08:37:20;;;;;;;7.60;2.63;;;4.20;99.90;;;;;;5051085;28;20210;-76
2021/04/06 08:39:48;;;;;;;8.87;2.80;;;4.00;99.90;;;;;;5055963;28;20507;-76
2021/04/06 08:42:17;;;;;;;5.57;3.00;;;3.90;99.90;;;;;;5055744;28;20442;-76
2021/04/06 08:44:48;;;;;;;5.60;2.73;;;3.80;99.90;;;;;;5054461;28;20442;-76
2021/04/06 08:47:38;;;;;;;7.33;3.37;;;3.70;99.90;;;;;;5054266;28;20492;-76
2021/04/06 08:50:08;;;;;;;8.27;3.63;;;3.70;99.90;;;;;;5055728;28;20519;-76
2021/04/06 08:52:35;;;;;;;4.60;2.80;;;3.60;99.90;;;;;;5072358;28;20506;-76
2021/04/06 08:55:08;;;;;;;6.47;2.90;;;3.60;99.90;;;;;;5074192;28;20514;-75
2021/04/06 08:57:36;;;;;;;5.43;3.13;;;3.60;99.90;;;;;;5093251;28;20450;-75
2021/04/06 09:00:14;;;;;;;5.70;2.80;;;3.60;99.90;;;;;;5095220;28;20559;-75
2021/04/06 09:02:42;;;;;;;6.77;2.80;;;3.70;99.90;;;;;;5095467;28;20420;-76
2021/04/06 09:05:11;;;;;;;4.77;3.17;;;3.80;99.90;;;;;;5094017;28;20432;-75
2021/04/06 09:07:40;;;;;;;6.07;3.67;;;3.90;99.90;;;;;;5073868;28;20845;-75
2021/04/06 09:10:11;;;;;;;5.23;3.47;;;4.10;99.90;;;;;;5074979;28;20560;-75
2021/04/06 09:12:41;;;;;;;8.20;3.83;;;4.40;99.90;;;;;;5087745;28;20428;-75
2021/04/06 09:15:10;;;;;;;5.30;2.70;;;4.40;99.90;;;;;;5093841;28;20460;-75
2021/04/06 09:17:40;;;;;;;3.70;2.50;;;4.40;99.90;;;;;;5095118;28;20968;-75
2021/04/06 09:20:10;;;;;;;6.07;3.47;;;4.40;99.90;;;;;;5095406;28;20456;-75
2021/04/06 09:22:37;;;;;;;5.97;2.60;;;4.30;99.90;;;;;;5092623;28;20530;-76
2021/04/06 09:25:15;;;;;;;4.20;2.50;;;4.20;99.90;;;;;;5078204;28;20499;-76
2021/04/06 09:27:54;;;;;;;5.67;2.50;;;4.20;99.90;;;;;;5074326;28;20453;-76
2021/04/06 09:30:32;;;;;;;5.10;2.70;;;4.10;99.90;;;;;;5076654;28;20456;-76
2021/04/06 09:33:07;;;;;;;7.20;3.00;;;4.00;99.90;;;;;;5076031;28;20428;-75
2021/04/06 09:35:35;;;;;;;5.33;2.80;;;3.90;99.90;;;;;;5073041;28;20582;-75
2021/04/06 09:38:03;;;;;;;8.47;3.40;;;3.80;99.90;;;;;;5077114;28;20441;-75
2021/04/06 09:40:32;;;;;;;6.30;3.13;;;3.80;99.90;;;;;;5075734;28;20480;-75
2021/04/06 09:43:01;;;;;;;6.37;3.90;;;3.80;99.90;;;;;;5072618;28;20445;-75
2021/04/06 09:45:30;;;;;;;7.90;3.30;;;3.90;99.90;;;;;;5074251;28;20461;-75
2021/04/06 09:47:58;;;;;;;6.90;3.00;;;3.90;99.90;;;;;;5073177;28;20457;-75
2021/04/06 09:50:27;;;;;;;4.80;3.33;;;4.00;99.90;;;;;;5074058;28;20461;-75
2021/04/06 09:52:54;;;;;;;4.50;2.30;;;4.10;99.90;;;;;;5074227;28;20421;-75
2021/04/06 09:55:23;;;;;;;4.13;2.27;;;4.20;99.90;;;;;;5086038;28;20547;-75
2021/04/06 09:57:54;;;;;;;4.87;2.30;;;4.30;99.90;;;;;;5074293;28;20452;-75
2021/04/06 10:00:28;;;;;;;3.47;2.20;;;4.50;99.90;;;;;;5072589;28;20575;-75
2021/04/06 10:03:03;;;;;;;4.73;2.50;;;4.50;99.90;;;;;;5072741;28;20449;-75
2021/04/06 10:05:31;;;;;;;4.90;2.90;;;4.50;99.90;;;;;;5076313;28;20455;-75
2021/04/06 10:07:58;;;;;;;5.83;2.63;;;4.60;99.90;;;;;;5094380;28;20462;-76
2021/04/06 10:10:27;;;;;;;4.67;2.70;;;4.70;99.90;;;;;;5092172;28;20479;-75
2021/04/06 10:12:55;;;;;;;5.67;2.70;;;4.80;99.90;;;;;;5052678;28;20442;-75
2021/04/06 10:15:25;;;;;;;5.37;2.33;;;4.90;99.90;;;;;;5053691;28;20461;-75
2021/04/06 10:17:53;;;;;;;3.23;2.27;;;4.90;99.90;;;;;;5054296;28;20528;-75
2021/04/06 10:20:23;;;;;;;4.70;2.53;;;5.00;99.90;;;;;;5052372;28;20474;-75
2021/04/06 10:22:53;;;;;;;6.53;2.30;;;5.10;99.90;;;;;;5053383;28;20543;-75
2021/04/06 10:25:23;;;;;;;7.03;2.40;;;5.10;99.90;;;;;;5072355;28;20458;-75
2021/04/06 10:27:52;;;;;;;6.73;3.43;;;5.20;99.90;;;;;;5073635;28;20464;-75
2021/04/06 10:30:26;;;;;;;4.20;1.93;;;5.20;99.90;;;;;;5073804;28;20540;-75
2021/04/06 10:33:05;;;;;;;8.20;2.77;;;5.30;99.90;;;;;;5072635;28;20420;-75
2021/04/06 10:35:34;;;;;;;5.60;2.63;;;5.30;99.90;;;;;;5074075;28;20453;-75
2021/04/06 10:38:04;;;;;;;7.33;2.90;;;5.40;99.90;;;;;;5073969;28;20445;-75
2021/04/06 10:40:37;;;;;;;4.80;2.10;;;5.40;99.90;;;;;;5073843;28;20444;-75
2021/04/06 10:43:08;;;;;;;4.60;2.20;;;5.40;99.90;;;;;;5079915;28;20497;-75
2021/04/06 10:45:38;;;;;;;3.90;2.37;;;5.40;99.90;;;;;;5094096;28;20424;-75
2021/04/06 10:48:13;;;;;;;7.00;2.03;;;5.40;99.90;;;;;;5077725;28;20425;-75
2021/04/06 10:50:43;;;;;;;4.27;2.00;;;5.40;99.90;;;;;;5072173;28;20506;-75
2021/04/06 10:53:23;;;;;;;4.80;1.90;;;5.40;99.90;;;;;;5072373;28;20441;-75
2021/04/06 10:55:57;;;;;;;3.20;2.20;;;5.50;99.90;;;;;;5073661;28;20453;-75
2021/04/06 10:58:28;;;;;;;4.00;2.47;;;5.70;99.90;;;;;;5070488;28;20437;-75
2021/04/06 11:01:01;;;;;;;5.67;2.67;;;5.80;99.90;;;;;;5092290;28;20930;-75
2021/04/06 11:03:42;;;;;;;4.03;2.03;;;5.80;99.90;;;;;;5092284;28;20441;-75
2021/04/06 11:06:23;;;;;;;4.30;2.40;;;6.00;99.90;;;;;;5078638;28;20524;-75
2021/04/06 11:08:52;;;;;;;3.77;0.90;;;6.10;99.90;;;;;;5077845;28;20472;-75
2021/04/06 11:11:27;;;;;;;1.87;0.90;;;5.90;99.90;;;;;;5073187;28;20518;-75
2021/04/06 11:13:56;;;;;;;2.17;0.90;;;5.60;99.90;;;;;;5073222;28;20831;-75
2021/04/06 11:16:25;;;;;;;1.67;0.90;;;5.30;99.90;;;;;;5071613;28;20218;-75
2021/04/06 11:19:03;;;;;;;2.20;1.07;;;5.00;99.90;;;;;;5087796;28;20988;-75
2021/04/06 11:21:31;;;;;;;2.33;1.17;;;4.70;99.90;;;;;;5094224;28;20493;-75
2021/04/06 11:23:59;;;;;;;3.40;1.10;;;4.50;99.90;;;;;;5095995;28;20436;-75
2021/04/06 11:26:26;;;;;;;2.60;1.33;;;4.30;99.90;;;;;;5095680;28;20483;-75
2021/04/06 11:28:54;;;;;;;2.20;1.30;;;4.20;99.90;;;;;;5096934;28;20452;-75
2021/04/06 11:31:22;;;;;;;3.13;1.40;;;4.20;99.90;;;;;;5097227;28;20428;-75
2021/04/06 11:33:49;;;;;;;4.33;1.53;;;4.20;99.90;;;;;;5097034;28;20554;-75
2021/04/06 11:36:18;;;;;;;2.73;1.17;;;4.20;99.90;;;;;;5094027;28;20545;-75
2021/04/06 11:38:46;;;;;;;5.80;1.57;;;4.40;99.90;;;;;;5075405;28;20505;-75
2021/04/06 11:41:17;;;;;;;4.23;1.20;;;4.50;99.90;;;;;;5076907;28;20474;-75
2021/04/06 11:43:45;;;;;;;3.17;1.70;;;4.50;99.90;;;;;;5082380;28;20434;-75
2021/04/06 11:46:13;;;;;;;6.80;1.97;;;4.60;99.90;;;;;;5097056;28;20490;-75
2021/04/06 11:48:40;;;;;;;4.43;1.47;;;4.70;99.90;;;;;;5096967;28;20454;-75
2021/04/06 11:51:09;;;;;;;3.77;1.60;;;4.80;99.90;;;;;;5095569;28;20448;-75
2021/04/06 11:53:37;;;;;;;4.20;1.80;;;4.90;99.90;;;;;;5097357;28;20474;-75
2021/04/06 11:56:06;;;;;;;3.40;1.73;;;5.00;99.90;;;;;;5095422;28;20464;-75
2021/04/06 11:58:33;;;;;;;4.30;1.67;;;5.20;99.90;;;;;;5096538;28;20614;-75
2021/04/06 12:01:20;;;;;;;5.20;2.23;;;5.30;99.90;;;;;;5092567;28;20444;-75
2021/04/06 12:03:47;;;;;;;5.70;1.77;;;5.40;99.90;;;;;;5096484;28;20494;-75
2021/04/06 12:06:14;;;;;;;4.50;1.60;;;5.60;99.90;;;;;;5084832;28;20453;-75
2021/04/06 12:08:43;;;;;;;3.93;1.90;;;5.70;99.90;;;;;;5076018;28;20481;-75
2021/04/06 12:11:10;;;;;;;4.23;1.90;;;5.70;99.90;;;;;;5076233;28;20487;-75
2021/04/06 12:13:38;;;;;;;5.00;1.77;;;5.70;99.90;;;;;;5076377;28;20871;-75
2021/04/06 12:16:06;;;;;;;6.47;2.20;;;5.70;99.90;;;;;;5083708;28;20468;-75
2021/04/06 12:18:33;;;;;;;3.80;1.73;;;5.60;99.90;;;;;;5096139;28;20447;-75
2021/04/06 12:21:01;;;;;;;3.40;1.87;;;5.60;99.90;;;;;;5079629;28;20453;-75
2021/04/06 12:23:28;;;;;;;3.23;1.70;;;5.50;99.90;;;;;;5075516;28;20473;-76
2021/04/06 12:25:56;;;;;;;3.40;1.80;;;5.30;99.90;;;;;;5078397;28;21024;-75
2021/04/06 12:28:24;;;;;;;2.17;1.57;;;5.20;99.90;;;;;;5095259;28;20486;-75
2021/04/06 12:30:51;;;;;;;3.40;1.30;;;5.10;99.90;;;;;;5096370;28;20498;-75
2021/04/06 12:33:18;;;;;;;2.80;1.40;;;5.00;99.90;;;;;;5085673;28;20499;-75
2021/04/06 12:35:46;;;;;;;3.93;1.80;;;5.00;99.90;;;;;;5090668;28;20496;-75
2021/04/06 12:38:13;;;;;;;7.33;2.33;;;5.00;99.90;;;;;;5095423;28;20443;-75
2021/04/06 12:40:40;;;;;;;7.37;3.03;;;5.00;99.90;;;;;;5096451;28;20452;-75
2021/04/06 12:43:08;;;;;;;5.10;2.00;;;5.00;99.90;;;;;;5098206;28;20432;-75
2021/04/06 12:45:36;;;;;;;3.10;1.67;;;4.90;99.90;;;;;;5091819;28;20446;-75
2021/04/06 12:48:04;;;;;;;3.70;1.90;;;4.90;99.90;;;;;;5076275;28;20437;-75
2021/04/06 12:50:32;;;;;;;5.83;2.40;;;4.80;99.90;;;;;;5076033;28;20448;-75
2021/04/06 12:52:59;;;;;;;6.53;2.10;;;4.70;99.90;;;;;;5073915;28;20471;-75
2021/04/06 12:55:28;;;;;;;6.60;2.20;;;4.60;99.90;;;;;;5093324;28;20996;-75
2021/04/06 12:57:56;;;;;;;6.10;2.20;;;4.60;99.90;;;;;;5088158;28;20436;-75
2021/04/06 13:00:25;;;;;;;6.47;2.73;;;4.60;99.90;;;;;;5073656;28;20473;-75
2021/04/06 13:02:53;;;;;;;6.70;2.70;;;4.60;99.90;;;;;;5075088;28;20860;-75
2021/04/06 13:05:20;;;;;;;3.70;1.80;;;4.60;99.90;;;;;;5074812;28;20468;-75
2021/04/06 13:07:52;;;;;;;7.83;2.77;;;4.60;99.90;;;;;;5089020;28;20455;-75
2021/04/06 13:10:21;;;;;;;4.90;2.30;;;4.50;99.90;;;;;;5093402;28;20829;-75
2021/04/06 13:12:49;;;;;;;4.37;2.00;;;4.50;99.90;;;;;;5095171;28;20494;-75
2021/04/06 13:15:17;;;;;;;4.37;1.80;;;4.40;99.90;;;;;;5093497;28;20464;-75
2021/04/06 13:17:45;;;;;;;3.90;2.27;;;4.30;99.90;;;;;;5093809;28;20843;-75